Time;durP1;ratioP1;P1;durP2;ratioP2;P2;SDS_P1;SDS_P2;PMS_P1;PMS_P2;Temp;Humidity;BMP_temperature;BMP_pressure;BME280_temperature;BME280_humidity;BME280_pressure;Samples;Min_cycle;Max_cycle;Signal;HPM_P1;HPM_P2
2022/01/14 00:01:11;;;;;;;6.80;3.58;;;;;;;;;;5073490;28;20032;-62
2022/01/14 00:03:38;;;;;;;7.57;4.07;;;;;;;;;;5073467;28;20017;-62
2022/01/14 00:06:04;;;;;;;7.15;4.00;;;;;;;;;;5073494;28;20109;-62
2022/01/14 00:08:30;;;;;;;8.52;4.65;;;;;;;;;;5072167;28;20019;-62
2022/01/14 00:10:58;;;;;;;7.18;3.95;;;;;;;;;;5073306;28;20029;-63
2022/01/14 00:16:09;;;;;;;8.25;4.32;;;;;;;;;;5073025;28;20051;-62
2022/01/14 00:18:35;;;;;;;8.73;5.35;;;;;;;;;;5073505;28;20099;-64
2022/01/14 00:21:01;;;;;;;9.20;5.40;;;;;;;;;;5071958;28;20032;-63
2022/01/14 00:23:32;;;;;;;8.57;4.75;;;;;;;;;;5073064;28;20023;-67
2022/01/14 00:34:13;;;;;;;8.88;5.25;;;;;;;;;;5033408;28;20067;-62
2022/01/14 00:36:40;;;;;;;7.93;4.68;;;;;;;;;;5033001;28;20521;-65
2022/01/14 00:39:07;;;;;;;7.05;4.57;;;;;;;;;;5032922;28;20104;-62
2022/01/14 00:41:34;;;;;;;8.88;5.10;;;;;;;;;;5033030;28;20010;-65
2022/01/14 00:44:02;;;;;;;9.60;5.43;;;;;;;;;;5033121;28;20106;-63
2022/01/14 00:46:29;;;;;;;9.85;5.15;;;;;;;;;;5032770;28;20018;-63
2022/01/14 00:48:56;;;;;;;8.23;5.15;;;;;;;;;;5032853;28;20037;-63
2022/01/14 00:51:22;;;;;;;7.90;4.95;;;;;;;;;;5032521;28;20451;-65
2022/01/14 00:53:48;;;;;;;8.75;4.85;;;;;;;;;;5032721;28;20028;-63
2022/01/14 00:56:32;;;;;;;9.88;5.10;;;;;;;;;;5032037;28;20056;-63
2022/01/14 00:59:14;;;;;;;8.93;5.28;;;;;;;;;;5032619;28;20025;-62
2022/01/14 01:01:42;;;;;;;8.38;4.65;;;;;;;;;;5032527;28;20036;-65
2022/01/14 01:04:09;;;;;;;8.88;5.28;;;;;;;;;;5032528;28;20401;-63
2022/01/14 01:06:35;;;;;;;10.32;5.55;;;;;;;;;;5032587;28;20022;-67
2022/01/14 01:09:02;;;;;;;7.47;4.68;;;;;;;;;;5032576;28;20036;-62
2022/01/14 01:11:34;;;;;;;9.07;4.90;;;;;;;;;;5032500;28;20021;-63
2022/01/14 01:14:14;;;;;;;8.77;5.70;;;;;;;;;;5032415;28;20017;-63
2022/01/14 01:16:40;;;;;;;8.40;5.00;;;;;;;;;;5032191;28;20107;-62
2022/01/14 01:19:07;;;;;;;7.88;5.07;;;;;;;;;;5032164;28;20022;-62
2022/01/14 01:21:34;;;;;;;8.98;5.00;;;;;;;;;;5032378;28;20028;-61
2022/01/14 01:24:00;;;;;;;9.50;5.72;;;;;;;;;;5032352;28;20025;-61
2022/01/14 01:26:38;;;;;;;9.77;5.00;;;;;;;;;;5030985;28;20031;-61
2022/01/14 01:31:39;;;;;;;7.97;5.13;;;;;;;;;;5032250;28;20033;-62
2022/01/14 01:34:06;;;;;;;7.78;4.57;;;;;;;;;;5031782;28;20029;-62
2022/01/14 01:36:33;;;;;;;8.55;4.78;;;;;;;;;;5031628;28;20037;-62
2022/01/14 01:38:59;;;;;;;8.98;5.28;;;;;;;;;;5031968;28;20025;-63
2022/01/14 01:41:25;;;;;;;6.93;4.60;;;;;;;;;;5031799;28;20101;-62
2022/01/14 01:43:53;;;;;;;9.35;5.43;;;;;;;;;;5031977;28;20105;-61
2022/01/14 01:46:20;;;;;;;10.55;6.05;;;;;;;;;;5031460;28;20599;-62
2022/01/14 01:48:47;;;;;;;8.82;5.55;;;;;;;;;;5031869;28;20606;-63
2022/01/14 01:51:13;;;;;;;8.57;5.15;;;;;;;;;;5031623;28;20030;-62
2022/01/14 01:53:40;;;;;;;12.40;4.82;;;;;;;;;;5031446;28;20092;-62
2022/01/14 01:56:06;;;;;;;8.75;5.50;;;;;;;;;;5031383;28;20021;-63
2022/01/14 01:58:32;;;;;;;8.68;4.88;;;;;;;;;;5031673;28;20488;-62
2022/01/14 02:00:58;;;;;;;9.05;5.43;;;;;;;;;;5030440;28;20045;-63
2022/01/14 02:03:24;;;;;;;7.68;4.43;;;;;;;;;;5031531;28;20052;-62
2022/01/14 02:05:50;;;;;;;7.05;4.18;;;;;;;;;;5031577;28;20057;-62
2022/01/14 02:08:16;;;;;;;8.93;5.22;;;;;;;;;;5038484;28;20029;-61
2022/01/14 02:10:43;;;;;;;10.60;5.40;;;;;;;;;;5051392;28;20029;-63
2022/01/14 02:13:10;;;;;;;7.57;4.40;;;;;;;;;;5051067;28;20025;-62
2022/01/14 02:18:27;;;;;;;9.82;5.53;;;;;;;;;;5051393;28;20506;-61
2022/01/14 02:23:43;;;;;;;8.70;5.20;;;;;;;;;;5051003;28;20036;-65
2022/01/14 02:26:09;;;;;;;7.18;4.03;;;;;;;;;;5049651;28;20013;-62
2022/01/14 02:28:36;;;;;;;9.15;5.22;;;;;;;;;;5051259;28;20022;-61
2022/01/14 02:31:02;;;;;;;8.95;4.95;;;;;;;;;;5033082;28;20025;-62
2022/01/14 02:33:28;;;;;;;7.60;4.57;;;;;;;;;;5031246;28;20025;-62
2022/01/14 02:35:55;;;;;;;9.18;5.22;;;;;;;;;;5031292;28;20354;-64
2022/01/14 02:38:21;;;;;;;9.32;5.18;;;;;;;;;;5031252;28;20057;-62
2022/01/14 02:40:48;;;;;;;8.50;5.47;;;;;;;;;;5031379;28;20026;-63
2022/01/14 02:43:16;;;;;;;8.98;5.65;;;;;;;;;;5030813;28;20025;-64
2022/01/14 02:45:46;;;;;;;9.25;5.63;;;;;;;;;;5030918;28;20087;-63
2022/01/14 02:48:12;;;;;;;8.05;5.53;;;;;;;;;;5031048;28;20013;-62
2022/01/14 02:50:42;;;;;;;8.05;4.68;;;;;;;;;;5031130;28;20026;-66
2022/01/14 02:55:50;;;;;;;8.50;5.35;;;;;;;;;;5029997;28;20113;-62
2022/01/14 02:58:17;;;;;;;9.05;5.72;;;;;;;;;;5031096;28;20032;-63
2022/01/14 03:00:43;;;;;;;8.95;5.30;;;;;;;;;;5034713;28;20025;-64
2022/01/14 03:03:10;;;;;;;8.02;4.88;;;;;;;;;;5034806;28;20382;-62
2022/01/14 03:05:36;;;;;;;9.35;4.82;;;;;;;;;;5034729;28;20464;-64
2022/01/14 03:08:02;;;;;;;8.68;5.05;;;;;;;;;;5034753;28;20504;-63
2022/01/14 03:10:28;;;;;;;10.18;6.15;;;;;;;;;;5034818;28;20039;-64
2022/01/14 03:12:55;;;;;;;7.85;4.72;;;;;;;;;;5034595;28;20029;-61
2022/01/14 03:15:21;;;;;;;11.77;6.43;;;;;;;;;;5066347;28;20037;-64
2022/01/14 03:17:47;;;;;;;8.88;4.72;;;;;;;;;;5034765;28;20037;-63
2022/01/14 03:20:40;;;;;;;9.23;5.28;;;;;;;;;;5034764;28;20484;-62
2022/01/14 03:23:07;;;;;;;9.02;5.85;;;;;;;;;;5034542;28;20424;-64
2022/01/14 03:25:48;;;;;;;10.00;4.95;;;;;;;;;;5034302;28;20040;-63
2022/01/14 03:28:14;;;;;;;9.05;5.60;;;;;;;;;;5033375;28;20087;-62
2022/01/14 03:30:40;;;;;;;10.63;5.45;;;;;;;;;;5049355;28;20020;-63
2022/01/14 03:33:06;;;;;;;9.27;5.22;;;;;;;;;;5052827;28;20030;-62
2022/01/14 03:35:32;;;;;;;10.30;5.63;;;;;;;;;;5054119;28;20040;-63
2022/01/14 03:37:58;;;;;;;10.35;5.70;;;;;;;;;;5054040;28;20044;-61
2022/01/14 03:40:24;;;;;;;8.40;4.82;;;;;;;;;;5054161;28;20021;-64
2022/01/14 03:42:50;;;;;;;9.38;5.72;;;;;;;;;;5053937;28;20025;-62
2022/01/14 03:45:17;;;;;;;9.30;5.72;;;;;;;;;;5053563;28;20017;-62
2022/01/14 03:47:43;;;;;;;9.35;5.43;;;;;;;;;;5054037;28;20025;-62
2022/01/14 03:50:09;;;;;;;9.35;5.43;;;;;;;;;;5053989;28;20024;-61
2022/01/14 03:52:35;;;;;;;9.98;5.88;;;;;;;;;;5053782;28;20025;-61
2022/01/14 03:55:01;;;;;;;8.27;5.18;;;;;;;;;;5053894;28;20163;-61
2022/01/14 03:57:27;;;;;;;7.63;5.28;;;;;;;;;;5053679;28;20037;-62
2022/01/14 03:59:53;;;;;;;8.15;5.38;;;;;;;;;;5053713;28;20016;-62
2022/01/14 04:02:19;;;;;;;8.15;5.20;;;;;;;;;;5053619;28;20493;-63
2022/01/14 04:04:45;;;;;;;8.45;4.95;;;;;;;;;;5053336;28;20025;-64
2022/01/14 04:07:11;;;;;;;9.48;5.82;;;;;;;;;;5053340;28;20048;-63
2022/01/14 04:09:37;;;;;;;8.25;5.03;;;;;;;;;;5053144;28;20051;-62
2022/01/14 04:12:06;;;;;;;10.07;5.00;;;;;;;;;;5053570;28;20021;-64
2022/01/14 04:16:59;;;;;;;8.70;5.13;;;;;;;;;;5053269;28;20048;-62
2022/01/14 04:19:25;;;;;;;10.38;5.55;;;;;;;;;;5053066;28;20072;-62
2022/01/14 04:21:52;;;;;;;7.18;4.70;;;;;;;;;;5051893;28;20493;-65
2022/01/14 04:24:18;;;;;;;8.85;5.05;;;;;;;;;;5053604;28;20083;-64
2022/01/14 04:26:44;;;;;;;9.05;5.35;;;;;;;;;;5053315;28;20031;-67
2022/01/14 04:29:10;;;;;;;8.48;4.75;;;;;;;;;;5048904;28;20031;-62
2022/01/14 04:31:36;;;;;;;7.80;4.80;;;;;;;;;;5033261;28;20033;-65
2022/01/14 04:34:02;;;;;;;9.52;5.28;;;;;;;;;;5033015;28;20013;-64
2022/01/14 04:36:28;;;;;;;8.65;5.30;;;;;;;;;;5031649;28;20090;-63
2022/01/14 04:38:54;;;;;;;8.15;5.10;;;;;;;;;;5033244;28;20061;-64
2022/01/14 04:41:20;;;;;;;10.80;5.90;;;;;;;;;;5032918;28;20025;-65
2022/01/14 04:43:46;;;;;;;8.82;4.28;;;;;;;;;;5033084;28;20022;-62
2022/01/14 04:48:38;;;;;;;7.40;4.82;;;;;;;;;;5032975;28;20496;-66
2022/01/14 04:51:06;;;;;;;7.72;4.90;;;;;;;;;;5032916;28;20468;-65
2022/01/14 04:53:33;;;;;;;8.60;4.90;;;;;;;;;;5032744;28;20026;-64
2022/01/14 04:55:59;;;;;;;7.47;4.22;;;;;;;;;;5032641;28;20068;-63
2022/01/14 04:58:26;;;;;;;7.47;4.22;;;;;;;;;;5032712;28;20083;-63
2022/01/14 05:00:52;;;;;;;7.88;4.30;;;;;;;;;;5032613;28;20705;-63
2022/01/14 05:03:19;;;;;;;9.00;5.03;;;;;;;;;;5032298;28;20033;-65
2022/01/14 05:05:48;;;;;;;7.50;4.40;;;;;;;;;;5032384;28;20025;-64
2022/01/14 05:08:25;;;;;;;7.82;4.75;;;;;;;;;;5032491;28;20439;-66
2022/01/14 05:13:24;;;;;;;8.55;4.68;;;;;;;;;;5032381;28;20022;-62
2022/01/14 05:15:50;;;;;;;8.57;4.68;;;;;;;;;;5031828;28;20045;-62
2022/01/14 05:18:16;;;;;;;6.82;4.10;;;;;;;;;;5032221;28;20040;-62
2022/01/14 05:20:42;;;;;;;7.07;4.57;;;;;;;;;;5031864;28;20037;-65
2022/01/14 05:23:08;;;;;;;7.35;4.45;;;;;;;;;;5031826;28;20079;-61
2022/01/14 05:25:34;;;;;;;8.95;5.15;;;;;;;;;;5032240;28;20366;-62
2022/01/14 05:28:00;;;;;;;7.45;4.40;;;;;;;;;;5042396;28;20036;-61
2022/01/14 05:30:27;;;;;;;7.45;4.68;;;;;;;;;;5051800;28;20017;-61
2022/01/14 05:32:54;;;;;;;9.68;4.10;;;;;;;;;;5051963;28;20108;-64
2022/01/14 05:35:24;;;;;;;7.90;4.03;;;;;;;;;;5051793;28;20032;-62
2022/01/14 05:37:50;;;;;;;9.38;4.35;;;;;;;;;;5051764;28;20029;-62
2022/01/14 05:40:17;;;;;;;8.43;3.85;;;;;;;;;;5051629;28;20021;-63
2022/01/14 05:42:44;;;;;;;9.70;4.20;;;;;;;;;;5051746;28;20110;-63
2022/01/14 05:45:11;;;;;;;24.20;14.60;;;;;;;;;;5051434;28;20023;-64
2022/01/14 05:47:39;;;;;;;21.48;9.93;;;;;;;;;;5050379;28;20029;-62
2022/01/14 05:50:06;;;;;;;11.85;6.95;;;;;;;;;;5051608;28;20112;-63
2022/01/14 05:52:32;;;;;;;13.60;6.38;;;;;;;;;;5051655;28;20490;-62
2022/01/14 05:54:58;;;;;;;12.93;6.18;;;;;;;;;;5051720;28;20083;-63
2022/01/14 05:57:24;;;;;;;17.00;8.10;;;;;;;;;;5051563;28;20029;-62
2022/01/14 05:59:50;;;;;;;14.32;6.05;;;;;;;;;;5051539;28;20115;-63
2022/01/14 06:02:16;;;;;;;17.10;7.70;;;;;;;;;;5050122;28;20024;-61
2022/01/14 06:04:43;;;;;;;22.60;6.60;;;;;;;;;;5051266;28;20076;-63
2022/01/14 06:07:12;;;;;;;13.77;7.07;;;;;;;;;;5050973;28;20431;-65
2022/01/14 06:09:38;;;;;;;13.82;6.43;;;;;;;;;;5031350;28;20389;-61
2022/01/14 06:12:05;;;;;;;15.20;6.57;;;;;;;;;;5031479;28;20025;-65
2022/01/14 06:14:31;;;;;;;16.70;6.13;;;;;;;;;;5031462;28;20088;-64
2022/01/14 06:16:58;;;;;;;13.30;5.93;;;;;;;;;;5032159;28;20096;-62
2022/01/14 06:19:27;;;;;;;11.55;5.97;;;;;;;;;;5048466;28;20482;-62
2022/01/14 06:21:53;;;;;;;20.58;6.38;;;;;;;;;;5047478;28;20013;-64
2022/01/14 06:24:19;;;;;;;14.57;6.15;;;;;;;;;;5034296;28;20021;-63
2022/01/14 06:26:45;;;;;;;15.65;5.43;;;;;;;;;;5049797;28;20020;-64
2022/01/14 06:29:11;;;;;;;9.68;4.97;;;;;;;;;;5041105;28;20092;-62
2022/01/14 06:31:37;;;;;;;13.68;5.88;;;;;;;;;;5050641;28;20032;-62
2022/01/14 06:34:03;;;;;;;9.32;4.97;;;;;;;;;;5052939;28;20032;-62
2022/01/14 06:36:29;;;;;;;11.07;5.13;;;;;;;;;;5054716;28;20137;-63
2022/01/14 06:38:55;;;;;;;9.88;4.95;;;;;;;;;;5054667;28;20468;-64
2022/01/14 06:41:21;;;;;;;9.75;5.70;;;;;;;;;;5042800;28;20503;-61
2022/01/14 06:43:47;;;;;;;9.45;5.15;;;;;;;;;;5034512;28;20105;-62
2022/01/14 06:46:14;;;;;;;11.57;4.57;;;;;;;;;;5034260;28;20421;-64
2022/01/14 06:48:40;;;;;;;8.77;4.97;;;;;;;;;;5034348;28;20029;-62
2022/01/14 06:51:12;;;;;;;8.60;4.35;;;;;;;;;;5034828;28;20030;-63
2022/01/14 06:53:38;;;;;;;9.10;5.15;;;;;;;;;;5034198;28;20025;-62
2022/01/14 06:56:04;;;;;;;10.80;5.05;;;;;;;;;;5034074;28;20025;-62
2022/01/14 06:58:31;;;;;;;9.73;5.15;;;;;;;;;;5034220;28;20036;-63
2022/01/14 07:00:57;;;;;;;7.60;4.57;;;;;;;;;;5033949;28;20037;-63
2022/01/14 07:03:23;;;;;;;9.90;5.25;;;;;;;;;;5032871;28;20040;-62
2022/01/14 07:05:49;;;;;;;9.93;5.25;;;;;;;;;;5034149;28;20113;-62
2022/01/14 07:08:15;;;;;;;8.48;4.57;;;;;;;;;;5034455;28;20021;-65
2022/01/14 07:10:41;;;;;;;8.30;4.85;;;;;;;;;;5033972;28;20683;-64
2022/01/14 07:13:07;;;;;;;10.60;5.07;;;;;;;;;;5033783;28;20025;-63
2022/01/14 07:15:33;;;;;;;6.53;3.63;;;;;;;;;;5033705;28;20057;-65
2022/01/14 07:17:59;;;;;;;7.68;3.85;;;;;;;;;;5033734;28;20029;-65
2022/01/14 07:20:25;;;;;;;8.48;4.78;;;;;;;;;;5049045;28;20108;-62
2022/01/14 07:22:51;;;;;;;8.35;4.70;;;;;;;;;;5049083;28;20059;-65
2022/01/14 07:25:18;;;;;;;7.50;4.47;;;;;;;;;;5034032;28;20061;-62
2022/01/14 07:27:44;;;;;;;9.95;4.63;;;;;;;;;;5032340;28;20025;-65
2022/01/14 07:30:10;;;;;;;12.35;5.47;;;;;;;;;;5044322;28;20017;-65
2022/01/14 07:32:37;;;;;;;7.65;4.80;;;;;;;;;;5053674;28;20100;-64
2022/01/14 07:35:03;;;;;;;9.38;4.65;;;;;;;;;;5053279;28;20018;-65
2022/01/14 07:37:29;;;;;;;9.75;5.00;;;;;;;;;;5053207;28;20529;-65
2022/01/14 07:39:55;;;;;;;9.25;5.07;;;;;;;;;;5053329;28;20108;-62
2022/01/14 07:42:21;;;;;;;10.02;5.55;;;;;;;;;;5052496;28;20021;-65
2022/01/14 07:44:48;;;;;;;10.50;4.97;;;;;;;;;;5052420;28;20099;-65
2022/01/14 07:47:14;;;;;;;8.45;4.57;;;;;;;;;;5039297;28;20029;-62
2022/01/14 07:49:40;;;;;;;11.57;5.05;;;;;;;;;;5032042;28;20465;-62
2022/01/14 07:52:06;;;;;;;9.40;3.97;;;;;;;;;;5033150;28;20601;-61
2022/01/14 07:54:32;;;;;;;8.93;3.92;;;;;;;;;;5033123;28;20380;-61
2022/01/14 07:57:00;;;;;;;14.23;5.57;;;;;;;;;;5033033;28;20029;-63
2022/01/14 07:59:27;;;;;;;10.95;4.25;;;;;;;;;;5033722;28;20026;-62
2022/01/14 08:01:58;;;;;;;8.57;4.53;;;;;;;;;;5033187;28;20034;-62
2022/01/14 08:04:24;;;;;;;7.03;3.95;;;;;;;;;;5033068;28;20025;-62
2022/01/14 08:06:53;;;;;;;9.85;4.90;;;;;;;;;;5031595;28;20362;-63
2022/01/14 08:09:20;;;;;;;10.00;4.65;;;;;;;;;;5032711;28;20511;-62
2022/01/14 08:11:46;;;;;;;8.50;4.38;;;;;;;;;;5032850;28;20033;-62
2022/01/14 08:14:13;;;;;;;7.63;4.07;;;;;;;;;;5043944;28;20116;-62
2022/01/14 08:16:39;;;;;;;8.57;3.83;;;;;;;;;;5045917;28;20102;-62
2022/01/14 08:19:05;;;;;;;7.32;3.72;;;;;;;;;;5033451;28;20481;-64
2022/01/14 08:21:31;;;;;;;10.77;3.47;;;;;;;;;;5052543;28;20028;-62
2022/01/14 08:23:58;;;;;;;8.52;3.75;;;;;;;;;;5051270;28;20025;-64
2022/01/14 08:26:24;;;;;;;6.72;3.40;;;;;;;;;;5052647;28;20104;-64
2022/01/14 08:28:50;;;;;;;6.45;3.58;;;;;;;;;;5052709;28;20021;-64
2022/01/14 08:31:16;;;;;;;7.80;4.05;;;;;;;;;;5033121;28;20099;-64
2022/01/14 08:33:43;;;;;;;8.93;4.07;;;;;;;;;;5033094;28;20025;-64
2022/01/14 08:36:10;;;;;;;9.30;3.92;;;;;;;;;;5032412;28;20520;-63
2022/01/14 08:38:37;;;;;;;6.53;3.90;;;;;;;;;;5032650;28;20033;-62
2022/01/14 08:41:03;;;;;;;6.43;3.38;;;;;;;;;;5032454;28;20455;-62
2022/01/14 08:43:29;;;;;;;8.88;3.65;;;;;;;;;;5031719;28;20080;-64
2022/01/14 08:46:01;;;;;;;6.63;3.60;;;;;;;;;;5032093;28;20375;-64
2022/01/14 08:48:27;;;;;;;7.00;3.67;;;;;;;;;;5033150;28;20101;-64
2022/01/14 08:50:53;;;;;;;9.00;3.92;;;;;;;;;;5032373;28;20037;-64
2022/01/14 08:53:20;;;;;;;7.03;3.97;;;;;;;;;;5031911;28;20057;-64
2022/01/14 08:55:46;;;;;;;9.82;4.32;;;;;;;;;;5031384;28;20591;-64
2022/01/14 08:58:12;;;;;;;8.00;3.83;;;;;;;;;;5030220;28;20405;-62
2022/01/14 09:00:39;;;;;;;9.02;3.97;;;;;;;;;;5031920;28;20025;-64
2022/01/14 09:03:06;;;;;;;7.30;3.55;;;;;;;;;;5031869;28;20029;-65
2022/01/14 09:05:33;;;;;;;7.65;3.70;;;;;;;;;;5032222;28;20029;-62
2022/01/14 09:07:59;;;;;;;6.50;3.92;;;;;;;;;;5034259;28;20022;-63
2022/01/14 09:10:25;;;;;;;7.00;3.78;;;;;;;;;;5051637;28;20036;-64
2022/01/14 09:12:51;;;;;;;7.68;3.95;;;;;;;;;;5051779;28;20025;-65
2022/01/14 09:15:18;;;;;;;7.45;3.70;;;;;;;;;;5051278;28;20025;-64
2022/01/14 09:17:44;;;;;;;6.85;3.50;;;;;;;;;;5041153;28;20041;-64
2022/01/14 09:20:13;;;;;;;8.00;3.53;;;;;;;;;;5031904;28;20026;-64
2022/01/14 09:22:40;;;;;;;7.35;3.40;;;;;;;;;;5032120;28;20029;-64
2022/01/14 09:25:08;;;;;;;5.15;3.22;;;;;;;;;;5045132;28;20024;-63
2022/01/14 09:27:34;;;;;;;7.50;3.50;;;;;;;;;;5051380;28;20013;-64
2022/01/14 09:30:01;;;;;;;8.85;3.50;;;;;;;;;;5051369;28;20021;-62
2022/01/14 09:32:27;;;;;;;8.35;3.40;;;;;;;;;;5051408;28;20471;-62
2022/01/14 09:34:54;;;;;;;7.55;3.88;;;;;;;;;;5051627;28;20021;-62
2022/01/14 09:37:20;;;;;;;6.35;3.50;;;;;;;;;;5051197;28;20059;-62
2022/01/14 09:39:46;;;;;;;7.15;3.50;;;;;;;;;;5047836;28;20170;-63
2022/01/14 09:42:16;;;;;;;13.93;3.47;;;;;;;;;;5030488;28;20033;-62
2022/01/14 09:44:43;;;;;;;12.75;3.47;;;;;;;;;;5031737;28;20119;-63
2022/01/14 09:47:09;;;;;;;5.05;2.92;;;;;;;;;;5031912;28;20017;-63
2022/01/14 09:49:36;;;;;;;9.48;3.58;;;;;;;;;;5031913;28;20033;-63
2022/01/14 09:52:03;;;;;;;7.63;3.65;;;;;;;;;;5031970;28;20026;-61
2022/01/14 09:54:30;;;;;;;7.18;3.53;;;;;;;;;;5031716;28;20546;-64
2022/01/14 09:56:56;;;;;;;8.95;4.47;;;;;;;;;;5031695;28;20030;-62
2022/01/14 09:59:22;;;;;;;31.70;6.03;;;;;;;;;;5031787;28;20035;-63
2022/01/14 10:01:49;;;;;;;13.20;4.03;;;;;;;;;;5041353;28;20029;-63
2022/01/14 10:04:16;;;;;;;9.23;4.32;;;;;;;;;;5049929;28;20052;-66
2022/01/14 10:06:47;;;;;;;10.80;4.50;;;;;;;;;;5051092;28;20025;-65
2022/01/14 10:09:20;;;;;;;8.10;4.22;;;;;;;;;;5051077;28;20059;-65
2022/01/14 10:12:00;;;;;;;8.65;4.32;;;;;;;;;;5051279;28;20013;-62
2022/01/14 10:14:26;;;;;;;7.40;3.97;;;;;;;;;;5051253;28;20017;-65
2022/01/14 10:16:56;;;;;;;12.77;4.15;;;;;;;;;;5050759;28;20150;-63
2022/01/14 10:19:27;;;;;;;6.38;3.40;;;;;;;;;;5051231;28;20045;-65
2022/01/14 10:21:53;;;;;;;6.85;3.75;;;;;;;;;;5049832;28;20476;-63
2022/01/14 10:24:20;;;;;;;8.80;3.40;;;;;;;;;;5051158;28;20025;-62
2022/01/14 10:26:56;;;;;;;6.25;3.40;;;;;;;;;;5051410;28;20032;-62
2022/01/14 10:29:27;;;;;;;6.25;3.40;;;;;;;;;;5051337;28;20048;-64
2022/01/14 10:31:54;;;;;;;7.75;3.70;;;;;;;;;;5051117;28;20029;-64
2022/01/14 10:34:20;;;;;;;8.18;4.18;;;;;;;;;;5051105;28;20676;-65
2022/01/14 10:36:47;;;;;;;6.50;3.28;;;;;;;;;;5049711;28;20033;-65
2022/01/14 10:39:20;;;;;;;7.60;3.45;;;;;;;;;;5051297;28;20029;-66
2022/01/14 10:41:46;;;;;;;8.55;3.40;;;;;;;;;;5051347;28;20059;-63
2022/01/14 10:44:28;;;;;;;6.22;3.30;;;;;;;;;;5050813;28;20116;-64
2022/01/14 10:47:12;;;;;;;7.25;3.17;;;;;;;;;;5050374;28;20036;-63
2022/01/14 10:49:39;;;;;;;9.30;3.33;;;;;;;;;;5050990;28;20377;-64
2022/01/14 10:52:11;;;;;;;8.73;3.58;;;;;;;;;;5051015;28;20017;-63
2022/01/14 10:54:39;;;;;;;7.47;3.72;;;;;;;;;;5040337;28;20105;-63
2022/01/14 10:57:32;;;;;;;6.03;3.22;;;;;;;;;;5030928;28;20099;-68
2022/01/14 11:00:14;;;;;;;7.22;3.15;;;;;;;;;;5038319;28;20037;-62
2022/01/14 11:02:42;;;;;;;6.15;3.10;;;;;;;;;;5051901;28;20044;-61
2022/01/14 11:05:08;;;;;;;8.45;3.13;;;;;;;;;;5043953;28;20018;-62
2022/01/14 11:07:34;;;;;;;5.82;3.30;;;;;;;;;;5038610;28;20021;-61
2022/01/14 11:10:01;;;;;;;8.98;3.35;;;;;;;;;;5050470;28;20472;-65
2022/01/14 11:12:29;;;;;;;6.50;3.28;;;;;;;;;;5050541;28;20108;-67
2022/01/14 11:14:55;;;;;;;7.38;2.90;;;;;;;;;;5050379;28;20059;-67
2022/01/14 11:17:21;;;;;;;5.95;2.88;;;;;;;;;;5050345;28;20059;-63
2022/01/14 11:19:48;;;;;;;7.03;3.00;;;;;;;;;;5051776;28;20031;-66
2022/01/14 11:24:59;;;;;;;6.80;3.30;;;;;;;;;;5054328;28;20032;-66
2022/01/14 11:27:26;;;;;;;8.02;3.30;;;;;;;;;;5054242;28;20086;-63
2022/01/14 11:29:57;;;;;;;7.40;3.20;;;;;;;;;;5054262;28;20035;-62
2022/01/14 11:32:24;;;;;;;7.47;2.95;;;;;;;;;;5054233;28;20048;-65
2022/01/14 11:34:51;;;;;;;4.97;2.65;;;;;;;;;;5052932;28;20119;-64
2022/01/14 11:37:32;;;;;;;5.28;3.00;;;;;;;;;;5054058;28;20514;-63
2022/01/14 11:39:59;;;;;;;4.70;2.45;;;;;;;;;;5053959;28;20029;-64
2022/01/14 11:42:44;;;;;;;6.68;2.92;;;;;;;;;;5054048;28;20056;-63
2022/01/14 11:45:15;;;;;;;6.70;3.22;;;;;;;;;;5053848;28;20116;-69
2022/01/14 11:47:45;;;;;;;8.13;3.15;;;;;;;;;;5053635;28;20506;-63
2022/01/14 11:50:31;;;;;;;6.55;2.85;;;;;;;;;;5053691;28;20483;-63
2022/01/14 11:52:58;;;;;;;7.63;3.08;;;;;;;;;;5049684;28;20044;-64
2022/01/14 11:55:24;;;;;;;9.18;3.08;;;;;;;;;;5036816;28;20022;-65
2022/01/14 11:57:51;;;;;;;8.65;3.30;;;;;;;;;;5033606;28;20527;-64
2022/01/14 12:00:41;;;;;;;8.30;3.20;;;;;;;;;;5033878;28;20469;-64
2022/01/14 12:03:07;;;;;;;6.07;2.78;;;;;;;;;;5033804;28;20452;-63
2022/01/14 12:05:37;;;;;;;5.35;2.63;;;;;;;;;;5049372;28;20063;-63
2022/01/14 12:08:12;;;;;;;5.55;2.85;;;;;;;;;;5044940;28;20097;-64
2022/01/14 12:10:41;;;;;;;6.22;3.13;;;;;;;;;;5037197;28;20116;-66
2022/01/14 12:13:20;;;;;;;7.40;2.10;;;;;;;;;;5033290;28;20022;-65
2022/01/14 12:15:55;;;;;;;7.32;2.80;;;;;;;;;;5033378;28;20099;-63
2022/01/14 12:18:41;;;;;;;5.65;2.83;;;;;;;;;;5033357;28;20033;-68
2022/01/14 12:21:07;;;;;;;5.25;2.50;;;;;;;;;;5033290;28;20026;-65
2022/01/14 12:23:33;;;;;;;6.53;3.38;;;;;;;;;;5049375;28;20048;-64
2022/01/14 12:26:12;;;;;;;6.03;2.95;;;;;;;;;;5051948;28;20112;-62
2022/01/14 12:28:38;;;;;;;7.13;2.65;;;;;;;;;;5053147;28;20017;-62
2022/01/14 12:31:04;;;;;;;9.82;2.70;;;;;;;;;;5053044;28;20468;-63
2022/01/14 12:33:49;;;;;;;7.60;2.90;;;;;;;;;;5052153;28;20146;-63
2022/01/14 12:36:15;;;;;;;5.65;2.60;;;;;;;;;;5052879;28;20060;-64
2022/01/14 12:38:42;;;;;;;6.00;2.60;;;;;;;;;;5053032;28;20065;-64
2022/01/14 12:41:21;;;;;;;6.47;2.45;;;;;;;;;;5053059;28;20081;-65
2022/01/14 12:43:57;;;;;;;5.78;2.72;;;;;;;;;;5052949;28;20480;-62
2022/01/14 12:49:02;;;;;;;5.55;2.58;;;;;;;;;;5052982;28;20025;-63
2022/01/14 12:51:29;;;;;;;5.78;2.55;;;;;;;;;;5052727;28;20033;-65
2022/01/14 12:53:59;;;;;;;6.28;2.83;;;;;;;;;;5052802;28;20047;-65
2022/01/14 12:56:29;;;;;;;7.57;2.50;;;;;;;;;;5052654;28;20028;-65
2022/01/14 12:58:55;;;;;;;5.80;3.03;;;;;;;;;;5051389;28;20025;-65
2022/01/14 13:01:35;;;;;;;8.05;2.58;;;;;;;;;;5052728;28;20013;-65
2022/01/14 13:04:03;;;;;;;5.00;2.00;;;;;;;;;;5052431;28;20032;-65
2022/01/14 13:06:40;;;;;;;4.45;2.47;;;;;;;;;;5052767;28;20104;-63
2022/01/14 13:09:07;;;;;;;5.78;2.58;;;;;;;;;;5052663;28;20021;-64
2022/01/14 13:11:45;;;;;;;5.10;2.42;;;;;;;;;;5057392;28;20021;-62
2022/01/14 13:14:16;;;;;;;8.35;2.80;;;;;;;;;;5057790;28;20628;-62
2022/01/14 13:16:45;;;;;;;6.20;2.53;;;;;;;;;;5067191;28;20049;-65
2022/01/14 13:19:40;;;;;;;6.43;2.60;;;;;;;;;;5056904;28;20487;-63
2022/01/14 13:22:09;;;;;;;8.65;2.47;;;;;;;;;;5055050;28;20032;-67
2022/01/14 13:24:36;;;;;;;6.03;2.35;;;;;;;;;;5054515;28;20714;-64
2022/01/14 13:27:06;;;;;;;7.03;2.78;;;;;;;;;;5057459;28;20153;-64
2022/01/14 13:29:55;;;;;;;7.03;2.50;;;;;;;;;;5056059;28;20029;-62
2022/01/14 13:32:42;;;;;;;5.45;2.45;;;;;;;;;;5048742;28;20099;-63
2022/01/14 13:35:21;;;;;;;8.73;2.78;;;;;;;;;;5056350;28;20025;-61
2022/01/14 13:37:47;;;;;;;6.28;2.42;;;;;;;;;;5054967;28;20032;-62
2022/01/14 13:40:16;;;;;;;6.10;2.40;;;;;;;;;;5056131;28;20025;-65
2022/01/14 13:42:43;;;;;;;5.75;2.60;;;;;;;;;;5053841;28;20563;-61
2022/01/14 13:45:18;;;;;;;7.88;2.83;;;;;;;;;;5061648;28;20060;-63
2022/01/14 13:47:47;;;;;;;8.00;2.53;;;;;;;;;;5060671;28;20051;-63
2022/01/14 13:50:17;;;;;;;9.27;3.08;;;;;;;;;;5051329;28;20017;-66
2022/01/14 13:52:46;;;;;;;7.75;3.25;;;;;;;;;;5051676;28;20089;-64
2022/01/14 13:55:14;;;;;;;10.82;3.33;;;;;;;;;;5051855;28;20020;-63
2022/01/14 13:57:41;;;;;;;7.57;2.90;;;;;;;;;;5051568;28;20029;-63
2022/01/14 14:00:09;;;;;;;7.22;2.60;;;;;;;;;;5052930;28;20021;-62
2022/01/14 14:02:35;;;;;;;8.98;3.10;;;;;;;;;;5051274;28;20025;-63
2022/01/14 14:05:02;;;;;;;9.93;2.83;;;;;;;;;;5050054;28;20440;-63
2022/01/14 14:07:28;;;;;;;7.07;2.63;;;;;;;;;;5051087;28;20024;-62
2022/01/14 14:10:11;;;;;;;7.38;2.97;;;;;;;;;;5051461;28;20102;-63
2022/01/14 14:12:48;;;;;;;6.22;2.78;;;;;;;;;;5052920;28;20008;-65
2022/01/14 14:18:03;;;;;;;7.93;2.55;;;;;;;;;;5051022;28;20048;-64
2022/01/14 14:20:29;;;;;;;7.97;2.53;;;;;;;;;;5050396;28;20392;-64
2022/01/14 14:22:55;;;;;;;5.90;2.60;;;;;;;;;;5050993;28;20037;-63
2022/01/14 14:25:27;;;;;;;5.20;2.60;;;;;;;;;;5050279;28;20029;-61
2022/01/14 14:28:11;;;;;;;4.93;2.38;;;;;;;;;;5052266;28;20036;-63
2022/01/14 14:30:50;;;;;;;4.90;2.38;;;;;;;;;;5062542;28;20020;-65
2022/01/14 14:33:17;;;;;;;13.40;3.33;;;;;;;;;;5060914;28;20040;-66
2022/01/14 14:35:43;;;;;;;6.55;3.17;;;;;;;;;;5049919;28;20021;-63
2022/01/14 14:38:19;;;;;;;12.85;2.85;;;;;;;;;;5050388;28;20120;-62
2022/01/14 14:40:50;;;;;;;9.48;2.92;;;;;;;;;;5050307;28;20025;-66
2022/01/14 14:43:16;;;;;;;9.70;3.05;;;;;;;;;;5050377;28;20757;-66
2022/01/14 14:45:42;;;;;;;12.45;3.00;;;;;;;;;;5049719;28;20101;-67
2022/01/14 14:48:08;;;;;;;9.90;3.20;;;;;;;;;;5048481;28;20108;-62
2022/01/14 14:50:35;;;;;;;9.48;3.05;;;;;;;;;;5047289;28;20060;-66
2022/01/14 14:53:03;;;;;;;7.88;2.80;;;;;;;;;;5050170;28;20608;-65
2022/01/14 14:55:31;;;;;;;10.23;3.60;;;;;;;;;;5054220;28;20033;-63
2022/01/14 14:57:58;;;;;;;11.73;2.65;;;;;;;;;;5054160;28;20369;-66
2022/01/14 15:00:24;;;;;;;5.85;2.63;;;;;;;;;;5054168;28;20025;-62
2022/01/14 15:02:53;;;;;;;6.82;2.60;;;;;;;;;;5054934;28;20051;-64
2022/01/14 15:05:19;;;;;;;5.65;2.42;;;;;;;;;;5054559;28;20092;-62
2022/01/14 15:07:46;;;;;;;8.60;3.05;;;;;;;;;;5054670;28;20075;-65
2022/01/14 15:10:14;;;;;;;10.68;3.00;;;;;;;;;;5054743;28;20035;-63
2022/01/14 15:12:40;;;;;;;4.78;2.13;;;;;;;;;;5053331;28;20033;-62
2022/01/14 15:15:19;;;;;;;5.70;2.38;;;;;;;;;;5054003;28;20024;-65
2022/01/14 15:20:24;;;;;;;12.00;2.95;;;;;;;;;;5054811;28;20025;-61
2022/01/14 15:22:51;;;;;;;7.75;2.45;;;;;;;;;;5054080;28;20025;-61
2022/01/14 15:25:17;;;;;;;6.10;2.65;;;;;;;;;;5054369;28;20024;-61
2022/01/14 15:27:43;;;;;;;7.40;2.65;;;;;;;;;;5054361;28;20119;-65